createdAt,value
2023-03-14T00:04:06.587Z,11.8
2023-03-14T00:08:48.922Z,11.8
2023-03-14T00:13:55.381Z,11.8
2023-03-14T00:19:01.707Z,11.8
2023-03-14T00:24:08.091Z,11.8
2023-03-14T00:30:26.632Z,11.7
2023-03-14T00:34:20.838Z,11.7
2023-03-14T00:39:27.218Z,11.7
2023-03-14T00:45:17.695Z,11.7
2023-03-14T00:49:40.017Z,11.7
2023-03-14T00:54:46.421Z,11.7
2023-03-14T00:59:52.773Z,11.6
2023-03-14T01:05:19.254Z,11.6
2023-03-14T01:15:12.095Z,11.5
2023-03-14T01:20:18.489Z,11.5
2023-03-14T01:30:31.830Z,11.3
2023-03-14T01:35:39.195Z,11.3
2023-03-14T01:40:45.564Z,11.3
2023-03-14T01:45:51.989Z,11.3
2023-03-14T01:50:58.317Z,11.2
2023-03-14T01:56:04.741Z,11.2
2023-03-14T02:01:11.216Z,11.2
2023-03-14T02:06:25.240Z,11.1
2023-03-14T02:16:34.088Z,11.1
2023-03-14T02:21:40.518Z,11.0
2023-03-14T02:26:46.884Z,11.0
2023-03-14T02:31:53.336Z,10.9
2023-03-14T02:36:59.674Z,10.9
2023-03-14T02:42:06.051Z,10.8
2023-03-14T02:47:12.455Z,10.7
2023-03-14T02:52:18.844Z,10.7
2023-03-14T02:57:25.407Z,10.7
2023-03-14T03:02:31.854Z,10.6
2023-03-14T03:07:38.193Z,10.6
2023-03-14T03:13:08.639Z,10.6
2023-03-14T03:17:41.074Z,10.6
2023-03-14T03:23:17.373Z,10.6
2023-03-14T03:28:03.702Z,10.6
2023-03-14T03:33:34.134Z,10.5
2023-03-14T03:38:16.559Z,10.5
2023-03-14T03:43:22.942Z,10.5
2023-03-14T03:49:41.474Z,10.5
2023-03-14T03:53:35.701Z,10.4
2023-03-14T03:58:42.074Z,10.4
2023-03-14T04:03:48.509Z,10.4
2023-03-14T04:08:54.978Z,10.3
2023-03-14T04:14:21.297Z,10.3
2023-03-14T04:19:07.676Z,10.2
2023-03-14T04:29:20.478Z,10.1
2023-03-14T04:34:26.892Z,10.1
2023-03-14T04:40:45.609Z,10.1
2023-03-14T04:44:39.932Z,10.0
2023-03-14T04:49:46.343Z,10.0
2023-03-14T04:54:52.762Z,9.9
2023-03-14T05:01:11.374Z,9.9
2023-03-14T05:05:05.566Z,9.8
2023-03-14T05:10:10.906Z,9.8
2023-03-14T05:15:38.415Z,9.7
2023-03-14T05:20:24.974Z,9.7
2023-03-14T05:25:32.729Z,9.6
2023-03-14T05:30:37.825Z,9.6
2023-03-14T05:35:44.288Z,9.5
2023-03-14T05:40:50.636Z,9.5
2023-03-14T05:46:17.223Z,9.5
2023-03-14T05:51:03.438Z,9.5
2023-03-14T05:56:09.864Z,9.4
2023-03-14T06:01:16.322Z,9.4
2023-03-14T06:06:22.983Z,9.4
2023-03-14T06:11:29.304Z,9.4
2023-03-14T06:16:35.736Z,9.4
2023-03-14T06:22:02.137Z,9.4
2023-03-14T06:26:48.443Z,9.4
2023-03-14T06:32:19.019Z,9.4
2023-03-14T06:37:25.279Z,9.4
2023-03-14T06:42:07.604Z,9.4
2023-03-14T06:47:14.086Z,9.4
2023-03-14T06:52:20.474Z,9.4
2023-03-14T06:57:26.901Z,9.4
2023-03-14T07:02:42.579Z,9.5
2023-03-14T07:07:39.619Z,9.5
2023-03-14T07:12:46.057Z,9.5
2023-03-14T07:23:02.780Z,9.6
2023-03-14T07:38:19.108Z,9.9
2023-03-14T07:43:24.676Z,10.0
2023-03-14T07:48:31.127Z,10.0
2023-03-14T07:53:27.503Z,10.0
2023-03-14T07:58:42.923Z,10.0
2023-03-14T08:03:50.338Z,10.1
2023-03-14T08:24:15.942Z,10.0
2023-03-14T08:29:22.578Z,10.0
2023-03-14T08:34:28.894Z,10.1
2023-03-14T08:39:35.287Z,10.2
2023-03-14T08:44:41.851Z,10.3
2023-03-14T08:49:48.192Z,10.4
2023-03-14T08:54:54.532Z,10.4
2023-03-14T09:05:07.649Z,10.4
2023-03-14T09:10:15.570Z,10.4
2023-03-14T09:15:22.124Z,10.4
2023-03-14T09:20:28.354Z,10.3
2023-03-14T09:25:34.725Z,10.2
2023-03-14T09:30:41.144Z,10.1
2023-03-14T09:35:47.534Z,10.1
2023-03-14T09:40:54.999Z,10.0
2023-03-14T09:46:01.571Z,9.9
2023-03-14T09:51:07.839Z,9.8
2023-03-14T09:56:14.237Z,9.7
2023-03-14T10:01:20.644Z,9.6
2023-03-14T10:06:26.981Z,9.5
2023-03-14T10:17:03.913Z,9.2
2023-03-14T10:21:46.257Z,9.1
2023-03-14T10:27:12.683Z,9.0
2023-03-14T10:31:59.024Z,8.8
2023-03-14T10:37:05.435Z,8.7
2023-03-14T10:42:11.795Z,8.6
2023-03-14T10:47:18.660Z,8.5
2023-03-14T10:52:46.004Z,8.4
2023-03-14T10:57:55.217Z,8.3
2023-03-14T11:02:37.647Z,8.2
2023-03-14T11:07:44.121Z,8.2
2023-03-14T11:12:50.436Z,8.1
2023-03-14T11:17:56.828Z,8.1
2023-03-14T11:23:03.229Z,8.0
2023-03-14T11:28:09.580Z,7.9
2023-03-14T11:33:36.460Z,7.9
2023-03-14T11:38:22.367Z,7.9
2023-03-14T11:43:29.310Z,7.9
2023-03-14T11:48:35.342Z,7.9
2023-03-14T11:53:41.764Z,8.0
2023-03-14T11:59:12.152Z,8.0
2023-03-14T12:03:54.536Z,8.0
2023-03-14T12:09:00.895Z,8.0
2023-03-14T12:14:51.332Z,8.0
2023-03-14T12:19:13.618Z,8.0
2023-03-14T12:24:20.232Z,8.0
2023-03-14T12:29:50.685Z,8.0
2023-03-14T12:34:33.016Z,8.0
2023-03-14T12:39:39.467Z,8.1
2023-03-14T12:45:09.808Z,8.3
2023-03-14T12:52:42.996Z,8.5
2023-03-14T12:54:58.563Z,8.6
2023-03-14T13:00:04.919Z,8.8
2023-03-14T13:05:12.387Z,8.8
2023-03-14T13:10:17.926Z,8.9
2023-03-14T13:15:44.320Z,8.9
2023-03-14T13:20:30.665Z,9.0
2023-03-14T13:26:49.213Z,9.1
2023-03-14T13:31:07.555Z,9.1
2023-03-14T13:36:09.851Z,9.2
2023-03-14T13:40:56.223Z,9.4
2023-03-14T13:46:02.731Z,9.7
2023-03-14T13:51:10.063Z,10.0
2023-03-14T13:56:16.430Z,10.2
2023-03-14T14:01:22.938Z,10.4
2023-03-14T14:06:29.229Z,10.5
2023-03-14T14:11:45.803Z,10.6
2023-03-14T14:21:38.412Z,10.5
2023-03-14T14:26:54.888Z,10.4
2023-03-14T14:32:01.258Z,10.3
2023-03-14T14:37:28.151Z,10.3
2023-03-14T14:42:13.983Z,10.2
2023-03-14T14:47:20.385Z,10.2
2023-03-14T14:52:28.939Z,10.1
2023-03-14T14:57:33.340Z,10.1
2023-03-14T15:02:39.844Z,10.0
2023-03-14T15:07:46.309Z,10.0
2023-03-14T15:12:42.687Z,9.9
2023-03-14T15:18:19.145Z,9.9
2023-03-14T15:23:05.689Z,9.9
2023-03-14T15:28:11.851Z,9.8
2023-03-14T15:33:18.329Z,9.9
2023-03-14T15:38:24.893Z,9.9
2023-03-14T15:44:31.322Z,9.9
2023-03-14T15:48:57.637Z,9.9
2023-03-14T15:53:44.006Z,9.8
2023-03-14T15:58:50.348Z,9.8
2023-03-14T16:03:56.747Z,9.6
2023-03-14T16:09:03.123Z,9.5
2023-03-14T16:19:15.842Z,9.2
2023-03-14T16:24:22.406Z,9.1
2023-03-14T16:29:28.872Z,8.9
2023-03-14T16:34:55.318Z,8.8
2023-03-14T16:44:48.060Z,8.4
2023-03-14T16:49:54.438Z,8.2
2023-03-14T16:55:00.889Z,8.1
2023-03-14T17:00:31.370Z,7.9
2023-03-14T17:05:03.650Z,7.8
2023-03-14T17:10:24.048Z,7.7
2023-03-14T17:15:26.547Z,7.5
2023-03-14T17:20:33.064Z,7.4
2023-03-14T17:25:39.608Z,7.3
2023-03-14T17:30:46.142Z,7.2
2023-03-14T17:35:52.432Z,7.0
2023-03-14T17:40:57.763Z,6.9
2023-03-14T17:46:29.504Z,6.8
2023-03-14T17:51:11.878Z,6.7
2023-03-14T17:56:18.262Z,6.6
2023-03-14T18:01:44.954Z,6.5
2023-03-14T18:06:31.123Z,6.4
2023-03-14T18:11:37.391Z,6.2
2023-03-14T18:17:07.828Z,6.1
2023-03-14T18:21:50.303Z,6.0
2023-03-14T18:26:56.667Z,5.9
2023-03-14T18:32:03.050Z,5.8
2023-03-14T18:36:59.448Z,5.7
2023-03-14T18:42:15.812Z,5.7
2023-03-14T18:47:46.271Z,5.6
2023-03-14T18:52:28.662Z,5.5
2023-03-14T18:57:35.068Z,5.4
2023-03-14T19:02:41.549Z,5.3
2023-03-14T19:07:47.877Z,5.2
2023-03-14T19:13:54.349Z,5.1
2023-03-14T19:18:00.681Z,5.0
2023-03-14T19:23:07.137Z,4.9
2023-03-14T19:28:13.528Z,4.8
2023-03-14T19:33:19.923Z,4.8
2023-03-14T19:38:46.393Z,4.7
2023-03-14T19:43:22.691Z,4.6
2023-03-14T19:48:53.182Z,4.5
2023-03-14T19:53:45.719Z,4.4
2023-03-14T19:58:52.163Z,4.3
2023-03-14T20:03:58.531Z,4.2
2023-03-14T20:09:32.534Z,4.1
2023-03-14T20:14:15.040Z,4.1
2023-03-14T20:19:21.259Z,4.0
2023-03-14T20:24:47.684Z,3.9
2023-03-14T20:29:34.089Z,3.9
2023-03-14T20:34:40.435Z,3.8
2023-03-14T20:40:10.854Z,3.7
2023-03-14T20:45:17.254Z,3.7
2023-03-14T20:50:43.671Z,3.6
2023-03-14T20:55:05.970Z,3.5
2023-03-14T21:00:12.381Z,3.4
2023-03-14T21:05:18.908Z,3.4
2023-03-14T21:10:25.191Z,3.3
2023-03-14T21:15:31.702Z,3.2
2023-03-14T21:20:38.098Z,3.1
2023-03-14T21:25:44.791Z,3.1
2023-03-14T21:30:50.944Z,3.0
2023-03-14T21:35:57.424Z,2.9
2023-03-14T21:41:03.698Z,2.9
2023-03-14T21:46:10.176Z,2.8
2023-03-14T21:51:40.533Z,2.8
2023-03-14T21:56:22.852Z,2.7
2023-03-14T22:01:49.445Z,2.7
2023-03-14T22:06:35.622Z,2.7
2023-03-14T22:11:42.015Z,2.6
2023-03-14T22:27:01.310Z,2.5
2023-03-14T22:32:07.650Z,2.5
2023-03-14T22:37:14.647Z,2.4
2023-03-14T22:47:27.377Z,2.4
2023-03-14T22:52:33.776Z,2.3
2023-03-14T22:57:40.249Z,2.3
2023-03-14T23:02:46.858Z,2.2
2023-03-14T23:07:53.364Z,2.2
2023-03-14T23:13:19.828Z,2.2
2023-03-14T23:18:06.827Z,2.2
2023-03-14T23:24:25.349Z,2.2
2023-03-14T23:28:19.881Z,2.2
2023-03-14T23:33:50.380Z,2.3
2023-03-14T23:38:32.775Z,2.3
2023-03-14T23:44:03.195Z,2.3
2023-03-14T23:48:45.537Z,2.4
2023-03-14T23:53:51.949Z,2.4
2023-03-14T23:58:58.311Z,2.5
